Time;durP1;ratioP1;P1;durP2;ratioP2;P2;SDS_P1;SDS_P2;PMS_P1;PMS_P2;Temp;Humidity;BMP_temperature;BMP_pressure;BME280_temperature;BME280_humidity;BME280_pressure;Samples;Min_cycle;Max_cycle;Signal;HPM_P1;HPM_P2
2024/04/07 00:02:03;;;;;;;4.40;1.40;;;;;;;;;;5038722;28;20049;-59
2024/04/07 00:04:28;;;;;;;8.18;1.60;;;;;;;;;;5032513;28;20060;-59
2024/04/07 00:06:55;;;;;;;3.95;1.42;;;;;;;;;;5034714;28;20045;-59
2024/04/07 00:09:21;;;;;;;4.90;1.10;;;;;;;;;;5037762;28;20049;-59
2024/04/07 00:11:48;;;;;;;5.80;1.35;;;;;;;;;;5033395;28;20502;-59
2024/04/07 00:14:14;;;;;;;4.50;1.58;;;;;;;;;;5032125;28;20410;-59
2024/04/07 00:16:42;;;;;;;5.22;1.20;;;;;;;;;;5042489;28;20137;-59
2024/04/07 00:19:08;;;;;;;4.47;1.17;;;;;;;;;;5014095;28;20054;-60
2024/04/07 00:21:35;;;;;;;8.20;1.75;;;;;;;;;;5032349;28;20049;-60
2024/04/07 00:24:01;;;;;;;5.18;1.40;;;;;;;;;;5032263;28;20069;-63
2024/04/07 00:26:28;;;;;;;3.05;1.30;;;;;;;;;;5035699;28;20128;-59
2024/04/07 00:28:54;;;;;;;3.75;1.20;;;;;;;;;;5032468;28;20053;-61
2024/04/07 00:31:21;;;;;;;4.65;1.80;;;;;;;;;;5039158;28;20462;-60
2024/04/07 00:33:48;;;;;;;4.85;1.42;;;;;;;;;;5032139;28;20053;-59
2024/04/07 00:36:15;;;;;;;3.08;1.10;;;;;;;;;;5027224;28;20045;-59
2024/04/07 00:38:41;;;;;;;5.70;1.80;;;;;;;;;;5036228;28;20435;-59
2024/04/07 00:41:08;;;;;;;5.68;1.40;;;;;;;;;;5031520;28;20125;-60
2024/04/07 00:43:33;;;;;;;4.85;1.30;;;;;;;;;;5032063;28;20077;-59
2024/04/07 00:46:00;;;;;;;8.93;1.55;;;;;;;;;;5036868;28;20050;-60
2024/04/07 00:48:26;;;;;;;5.82;1.48;;;;;;;;;;5040231;28;20056;-59
2024/04/07 00:50:55;;;;;;;5.85;1.50;;;;;;;;;;5037636;28;20052;-59
2024/04/07 00:53:21;;;;;;;;;;;;;;;;;;5040923;28;20680;-59
2024/04/07 00:55:48;;;;;;;3.63;1.13;;;;;;;;;;5039754;28;20001;-59
2024/04/07 00:58:14;;;;;;;3.80;1.20;;;;;;;;;;5031980;28;20060;-59
2024/04/07 01:00:42;;;;;;;3.97;1.50;;;;;;;;;;5039298;28;20406;-59
2024/04/07 01:03:08;;;;;;;6.45;1.52;;;;;;;;;;5048279;28;20052;-60
2024/04/07 01:05:41;;;;;;;3.53;1.23;;;;;;;;;;5031697;28;20060;-60
2024/04/07 01:08:09;;;;;;;3.25;1.40;;;;;;;;;;5035848;28;20073;-59
2024/04/07 01:10:36;;;;;;;4.82;1.30;;;;;;;;;;5035520;28;20058;-60
2024/04/07 01:13:02;;;;;;;4.32;1.35;;;;;;;;;;5038858;28;20050;-62
2024/04/07 01:15:29;;;;;;;5.60;1.27;;;;;;;;;;5035907;28;20049;-60
2024/04/07 01:17:55;;;;;;;3.70;1.42;;;;;;;;;;5035142;28;20049;-60
2024/04/07 01:20:22;;;;;;;3.67;1.30;;;;;;;;;;5035455;28;20050;-60
2024/04/07 01:22:49;;;;;;;4.70;1.38;;;;;;;;;;5041145;28;20061;-59
2024/04/07 01:25:17;;;;;;;2.80;1.58;;;;;;;;;;5035585;28;20060;-60
2024/04/07 01:27:44;;;;;;;5.23;1.47;;;;;;;;;;5045420;28;20473;-59
2024/04/07 01:30:12;;;;;;;6.32;1.50;;;;;;;;;;5043619;28;20053;-59
2024/04/07 01:32:37;;;;;;;4.15;1.38;;;;;;;;;;5040552;28;20053;-59
2024/04/07 01:35:05;;;;;;;6.55;1.45;;;;;;;;;;5045968;28;20107;-59
2024/04/07 01:37:31;;;;;;;8.45;1.48;;;;;;;;;;5035510;28;20053;-59
2024/04/07 01:40:02;;;;;;;4.65;1.60;;;;;;;;;;5034648;28;20052;-59
2024/04/07 01:42:29;;;;;;;4.47;1.38;;;;;;;;;;5042478;28;20057;-59
2024/04/07 01:44:56;;;;;;;8.77;1.67;;;;;;;;;;5034690;28;20497;-59
2024/04/07 01:47:22;;;;;;;4.05;1.20;;;;;;;;;;5041569;28;20045;-59
2024/04/07 01:49:49;;;;;;;7.43;1.50;;;;;;;;;;5049378;28;20052;-59
2024/04/07 01:52:15;;;;;;;4.85;1.50;;;;;;;;;;5043965;28;20458;-60
2024/04/07 01:54:43;;;;;;;4.80;1.15;;;;;;;;;;5047573;28;20048;-60
2024/04/07 01:57:09;;;;;;;3.55;1.45;;;;;;;;;;5048511;28;20068;-60
2024/04/07 01:59:38;;;;;;;5.60;1.33;;;;;;;;;;5035116;28;20078;-59
2024/04/07 02:02:03;;;;;;;5.38;1.50;;;;;;;;;;5038259;28;20059;-60
2024/04/07 02:04:30;;;;;;;5.85;1.30;;;;;;;;;;5045871;28;20486;-59
2024/04/07 02:06:56;;;;;;;5.57;1.50;;;;;;;;;;5040459;28;20049;-60
2024/04/07 02:09:23;;;;;;;3.30;1.42;;;;;;;;;;5051252;28;20387;-59
2024/04/07 02:11:49;;;;;;;4.82;1.70;;;;;;;;;;5050360;28;20052;-59
2024/04/07 02:14:15;;;;;;;4.03;1.40;;;;;;;;;;5037111;28;20415;-59
2024/04/07 02:16:43;;;;;;;5.28;1.60;;;;;;;;;;5034418;28;20053;-59
2024/04/07 02:19:11;;;;;;;5.70;1.50;;;;;;;;;;5034069;28;20049;-60
2024/04/07 02:21:37;;;;;;;4.45;1.20;;;;;;;;;;5034749;28;20056;-59
2024/04/07 02:24:04;;;;;;;4.50;1.40;;;;;;;;;;5034557;28;20080;-59
2024/04/07 02:26:30;;;;;;;2.88;1.15;;;;;;;;;;5041237;28;20053;-59
2024/04/07 02:28:57;;;;;;;5.63;1.30;;;;;;;;;;5041441;28;20076;-59
2024/04/07 02:31:23;;;;;;;6.03;1.45;;;;;;;;;;5033980;28;20490;-60
2024/04/07 02:33:51;;;;;;;4.75;1.27;;;;;;;;;;5036093;28;20053;-59
2024/04/07 02:36:17;;;;;;;5.43;1.58;;;;;;;;;;5047188;28;20053;-60
2024/04/07 02:38:44;;;;;;;4.50;1.27;;;;;;;;;;5047645;28;20059;-59
2024/04/07 02:41:10;;;;;;;6.30;1.40;;;;;;;;;;5034088;28;20407;-59
2024/04/07 02:43:36;;;;;;;6.97;1.40;;;;;;;;;;5038905;28;20057;-59
2024/04/07 02:48:47;;;;;;;4.47;1.60;;;;;;;;;;4994054;28;20487;-59
2024/04/07 02:51:15;;;;;;;4.55;1.42;;;;;;;;;;5033402;28;20052;-60
2024/04/07 02:53:42;;;;;;;4.00;1.40;;;;;;;;;;5036763;28;20052;-60
2024/04/07 02:56:08;;;;;;;3.92;1.80;;;;;;;;;;5051011;28;20056;-60
2024/04/07 02:58:35;;;;;;;6.40;1.60;;;;;;;;;;5046862;28;20049;-59
2024/04/07 03:01:05;;;;;;;5.95;1.50;;;;;;;;;;5031574;28;20482;-60
2024/04/07 03:03:31;;;;;;;5.75;1.58;;;;;;;;;;5033199;28;20444;-59
2024/04/07 03:05:57;;;;;;;6.65;1.90;;;;;;;;;;5039095;28;20120;-59
2024/04/07 03:08:24;;;;;;;4.65;1.95;;;;;;;;;;5047443;28;20498;-59
2024/04/07 03:10:57;;;;;;;8.27;1.70;;;;;;;;;;5044586;28;20045;-60
2024/04/07 03:13:23;;;;;;;6.75;1.80;;;;;;;;;;5037535;28;20064;-59
2024/04/07 03:15:50;;;;;;;6.88;1.67;;;;;;;;;;5038852;28;20041;-59
2024/04/07 03:18:16;;;;;;;10.65;2.03;;;;;;;;;;5043161;28;20053;-59
2024/04/07 03:20:42;;;;;;;7.82;1.70;;;;;;;;;;5048470;28;20466;-59
2024/04/07 03:23:08;;;;;;;4.88;1.50;;;;;;;;;;5048468;28;20064;-59
2024/04/07 03:25:36;;;;;;;3.80;1.60;;;;;;;;;;5045239;28;20410;-59
2024/04/07 03:28:03;;;;;;;6.43;1.83;;;;;;;;;;5046223;28;20049;-59
2024/04/07 03:30:30;;;;;;;6.20;1.85;;;;;;;;;;5042838;28;20052;-59
2024/04/07 03:32:56;;;;;;;5.72;2.08;;;;;;;;;;5022043;28;20049;-59
2024/04/07 03:35:23;;;;;;;8.23;2.05;;;;;;;;;;5041205;28;20100;-59
2024/04/07 03:37:50;;;;;;;5.20;1.63;;;;;;;;;;5049046;28;20049;-59
2024/04/07 03:40:17;;;;;;;6.18;1.92;;;;;;;;;;5045449;28;20087;-59
2024/04/07 03:42:46;;;;;;;6.57;1.70;;;;;;;;;;5049780;28;20052;-61
2024/04/07 03:45:12;;;;;;;9.93;2.38;;;;;;;;;;5033340;28;20049;-60
2024/04/07 03:47:40;;;;;;;4.43;1.70;;;;;;;;;;5032383;28;20057;-59
2024/04/07 03:50:07;;;;;;;5.93;2.08;;;;;;;;;;5032597;28;20053;-58
2024/04/07 03:52:34;;;;;;;7.07;1.95;;;;;;;;;;5047186;28;20049;-59
2024/04/07 03:55:00;;;;;;;7.65;2.45;;;;;;;;;;5050876;28;20409;-59
2024/04/07 03:57:27;;;;;;;7.00;2.13;;;;;;;;;;5046957;28;20046;-60
2024/04/07 03:59:54;;;;;;;4.85;2.03;;;;;;;;;;5031978;28;20407;-60
2024/04/07 04:02:21;;;;;;;6.45;2.35;;;;;;;;;;5037392;28;20049;-59
2024/04/07 04:04:54;;;;;;;7.20;2.33;;;;;;;;;;5042163;28;20407;-59
2024/04/07 04:07:21;;;;;;;5.68;1.88;;;;;;;;;;5043118;28;20041;-59
2024/04/07 04:09:47;;;;;;;7.47;2.20;;;;;;;;;;5032278;28;20050;-59
2024/04/07 04:12:13;;;;;;;6.10;2.25;;;;;;;;;;5038092;28;20080;-59
2024/04/07 04:14:39;;;;;;;6.30;2.10;;;;;;;;;;5049766;28;20501;-59
2024/04/07 04:17:07;;;;;;;5.68;2.28;;;;;;;;;;5037884;28;20049;-59
2024/04/07 04:19:33;;;;;;;9.10;2.60;;;;;;;;;;5031955;28;20050;-59
2024/04/07 04:22:00;;;;;;;6.00;2.28;;;;;;;;;;5032856;28;20064;-59
2024/04/07 04:24:26;;;;;;;9.68;2.40;;;;;;;;;;5049954;28;20057;-59
2024/04/07 04:26:53;;;;;;;7.93;2.05;;;;;;;;;;5037438;28;20052;-59
2024/04/07 04:29:18;;;;;;;4.50;2.15;;;;;;;;;;5032163;28;20060;-59
2024/04/07 04:31:45;;;;;;;8.40;2.35;;;;;;;;;;5031901;28;20100;-64
2024/04/07 04:34:12;;;;;;;6.70;2.35;;;;;;;;;;5044055;28;20060;-59
2024/04/07 04:36:39;;;;;;;7.80;2.40;;;;;;;;;;5051853;28;20061;-59
2024/04/07 04:39:06;;;;;;;6.13;2.13;;;;;;;;;;5049301;28;20073;-60
2024/04/07 04:41:33;;;;;;;8.43;2.17;;;;;;;;;;5037545;28;20499;-59
2024/04/07 04:43:58;;;;;;;9.65;2.35;;;;;;;;;;5036191;28;20136;-59
2024/04/07 04:46:26;;;;;;;7.10;2.28;;;;;;;;;;5035961;28;20057;-59
2024/04/07 04:48:52;;;;;;;8.85;2.75;;;;;;;;;;5035616;28;20049;-60
2024/04/07 04:51:20;;;;;;;5.70;2.05;;;;;;;;;;5041901;28;20095;-59
2024/04/07 04:53:45;;;;;;;5.43;2.38;;;;;;;;;;5051950;28;20060;-59
2024/04/07 04:56:12;;;;;;;5.35;2.30;;;;;;;;;;5037747;28;20089;-59
2024/04/07 04:58:38;;;;;;;7.30;2.67;;;;;;;;;;5035233;28;20057;-59
2024/04/07 05:01:14;;;;;;;7.93;2.00;;;;;;;;;;5033932;28;20376;-59
2024/04/07 05:03:40;;;;;;;9.93;2.53;;;;;;;;;;5046377;28;20064;-59
2024/04/07 05:06:08;;;;;;;6.82;2.10;;;;;;;;;;5042870;28;20053;-60
2024/04/07 05:08:35;;;;;;;5.80;1.83;;;;;;;;;;5034091;28;20049;-59
2024/04/07 05:11:03;;;;;;;5.82;2.58;;;;;;;;;;5043399;28;20052;-59
2024/04/07 05:13:29;;;;;;;6.78;2.33;;;;;;;;;;5049945;28;20048;-59
2024/04/07 05:15:55;;;;;;;3.40;1.90;;;;;;;;;;5044245;28;20049;-59
2024/04/07 05:18:21;;;;;;;7.95;2.30;;;;;;;;;;5045406;28;20049;-58
2024/04/07 05:20:48;;;;;;;6.72;2.65;;;;;;;;;;5044240;28;20136;-63
2024/04/07 05:23:14;;;;;;;10.38;2.65;;;;;;;;;;5043168;28;20052;-61
2024/04/07 05:25:42;;;;;;;7.28;2.55;;;;;;;;;;5035301;28;20442;-59
2024/04/07 05:28:08;;;;;;;8.43;2.35;;;;;;;;;;5034261;28;20395;-60
2024/04/07 05:30:36;;;;;;;6.07;2.40;;;;;;;;;;5039460;28;20091;-59
2024/04/07 05:33:02;;;;;;;6.50;2.72;;;;;;;;;;5045547;28;20045;-60
2024/04/07 05:35:28;;;;;;;6.07;2.67;;;;;;;;;;5043246;28;20049;-59
2024/04/07 05:37:54;;;;;;;8.90;2.80;;;;;;;;;;5034251;28;20050;-59
2024/04/07 05:40:21;;;;;;;4.55;2.03;;;;;;;;;;5041020;28;20489;-59
2024/04/07 05:42:48;;;;;;;7.30;2.17;;;;;;;;;;5040916;28;20053;-59
2024/04/07 05:45:15;;;;;;;8.25;2.47;;;;;;;;;;5043130;28;20049;-60
2024/04/07 05:47:41;;;;;;;7.60;2.72;;;;;;;;;;5039589;28;20053;-59
2024/04/07 05:50:08;;;;;;;8.07;2.70;;;;;;;;;;5038926;28;20056;-59
2024/04/07 05:52:34;;;;;;;7.45;2.30;;;;;;;;;;5040606;28;20057;-59
2024/04/07 05:55:00;;;;;;;6.03;2.63;;;;;;;;;;5034307;28;20071;-60
2024/04/07 05:57:26;;;;;;;7.50;2.78;;;;;;;;;;5034407;28;20061;-59
2024/04/07 05:59:54;;;;;;;5.55;2.40;;;;;;;;;;5034642;28;20055;-60
2024/04/07 06:02:20;;;;;;;5.35;2.05;;;;;;;;;;5042185;28;20489;-60
2024/04/07 06:04:47;;;;;;;4.97;1.83;;;;;;;;;;5046794;28;20049;-58
2024/04/07 06:07:13;;;;;;;9.98;2.45;;;;;;;;;;5036290;28;20060;-59
2024/04/07 06:09:40;;;;;;;9.05;3.17;;;;;;;;;;5033886;28;20128;-60
2024/04/07 06:12:06;;;;;;;5.95;1.80;;;;;;;;;;5033930;28;20045;-60
2024/04/07 06:14:32;;;;;;;6.38;2.58;;;;;;;;;;5037094;28;20057;-59
2024/04/07 06:17:00;;;;;;;5.70;2.53;;;;;;;;;;5044049;28;20052;-58
2024/04/07 06:19:26;;;;;;;6.65;2.42;;;;;;;;;;5048352;28;20060;-59
2024/04/07 06:21:52;;;;;;;5.90;2.13;;;;;;;;;;5036738;28;20048;-60
2024/04/07 06:24:19;;;;;;;6.93;2.20;;;;;;;;;;5053606;28;20554;-60
2024/04/07 06:26:45;;;;;;;5.95;2.15;;;;;;;;;;5048999;28;20161;-60
2024/04/07 06:29:12;;;;;;;7.93;2.50;;;;;;;;;;5043031;28;20501;-59
2024/04/07 06:31:38;;;;;;;7.10;2.50;;;;;;;;;;5045140;28;20107;-60
2024/04/07 06:34:07;;;;;;;6.25;2.20;;;;;;;;;;5050990;28;20044;-60
2024/04/07 06:36:33;;;;;;;6.10;2.45;;;;;;;;;;5048396;28;20044;-58
2024/04/07 06:39:00;;;;;;;6.13;2.38;;;;;;;;;;5051350;28;20394;-61
2024/04/07 06:41:26;;;;;;;8.05;2.30;;;;;;;;;;5036598;28;20057;-59
2024/04/07 06:43:53;;;;;;;8.13;2.65;;;;;;;;;;5046374;28;20049;-58
2024/04/07 06:46:18;;;;;;;8.38;2.63;;;;;;;;;;5031677;28;20060;-59
2024/04/07 06:48:45;;;;;;;6.63;2.20;;;;;;;;;;5027662;28;20049;-60
2024/04/07 06:51:12;;;;;;;8.35;2.25;;;;;;;;;;5034201;28;20414;-59
2024/04/07 06:53:39;;;;;;;6.95;2.33;;;;;;;;;;5033650;28;20057;-59
2024/04/07 06:56:05;;;;;;;8.32;2.55;;;;;;;;;;5033980;28;20060;-59
2024/04/07 06:58:32;;;;;;;4.85;1.85;;;;;;;;;;5033027;28;20049;-63
2024/04/07 07:00:58;;;;;;;4.60;1.90;;;;;;;;;;5033622;28;20064;-60
2024/04/07 07:03:24;;;;;;;6.20;2.30;;;;;;;;;;5033238;28;20057;-59
2024/04/07 07:05:50;;;;;;;8.70;2.17;;;;;;;;;;5026780;28;20057;-59
2024/04/07 07:08:18;;;;;;;7.05;2.33;;;;;;;;;;5032668;28;20449;-59
2024/04/07 07:10:52;;;;;;;7.35;2.10;;;;;;;;;;5033546;28;20075;-59
2024/04/07 07:13:19;;;;;;;5.38;1.83;;;;;;;;;;5018819;28;20049;-60
2024/04/07 07:15:45;;;;;;;4.85;2.05;;;;;;;;;;5033135;28;20057;-59
2024/04/07 07:18:12;;;;;;;6.55;2.22;;;;;;;;;;5033559;28;20049;-59
2024/04/07 07:20:37;;;;;;;7.05;1.92;;;;;;;;;;5032413;28;20068;-59
2024/04/07 07:23:05;;;;;;;7.22;1.70;;;;;;;;;;5029033;28;20044;-59
2024/04/07 07:25:32;;;;;;;3.72;1.77;;;;;;;;;;5053059;28;20064;-60
2024/04/07 07:27:59;;;;;;;5.85;2.10;;;;;;;;;;5042458;28;20057;-59
2024/04/07 07:30:25;;;;;;;5.38;1.77;;;;;;;;;;5032671;28;20060;-59
2024/04/07 07:32:52;;;;;;;4.82;1.77;;;;;;;;;;5032216;28;20492;-59
2024/04/07 07:35:18;;;;;;;5.97;1.55;;;;;;;;;;5040502;28;20069;-59
2024/04/07 07:37:44;;;;;;;3.97;1.40;;;;;;;;;;5032368;28;20052;-63
2024/04/07 07:40:10;;;;;;;3.42;1.45;;;;;;;;;;5043879;28;20056;-63
2024/04/07 07:42:39;;;;;;;8.45;1.75;;;;;;;;;;5023300;28;20041;-62
2024/04/07 07:45:05;;;;;;;4.78;1.48;;;;;;;;;;5026066;28;20495;-61
2024/04/07 07:47:33;;;;;;;4.13;1.55;;;;;;;;;;5032925;28;20050;-62
2024/04/07 07:49:58;;;;;;;4.55;1.52;;;;;;;;;;5032961;28;20049;-62
2024/04/07 07:52:25;;;;;;;5.40;1.50;;;;;;;;;;5028532;28;20046;-62
2024/04/07 07:54:51;;;;;;;3.28;1.40;;;;;;;;;;5030262;28;20050;-61
2024/04/07 07:57:18;;;;;;;5.00;1.40;;;;;;;;;;5021768;28;20478;-61
2024/04/07 07:59:45;;;;;;;3.50;1.45;;;;;;;;;;5032550;28;20053;-62
2024/04/07 08:02:12;;;;;;;4.93;1.20;;;;;;;;;;5033390;28;20491;-62
2024/04/07 08:04:38;;;;;;;4.55;1.02;;;;;;;;;;5032709;28;20061;-61
2024/04/07 08:07:05;;;;;;;2.80;1.27;;;;;;;;;;5031690;28;20086;-62
2024/04/07 08:09:32;;;;;;;5.30;1.40;;;;;;;;;;5030852;28;20045;-62
2024/04/07 08:11:59;;;;;;;3.25;1.50;;;;;;;;;;5027829;28;20046;-62
2024/04/07 08:14:25;;;;;;;5.57;1.40;;;;;;;;;;5012218;28;20061;-62
2024/04/07 08:16:53;;;;;;;6.60;1.27;;;;;;;;;;5029024;28;20049;-61
2024/04/07 08:19:20;;;;;;;2.58;1.10;;;;;;;;;;5032417;28;20061;-61
2024/04/07 08:21:46;;;;;;;4.45;1.35;;;;;;;;;;5032304;28;20041;-61
2024/04/07 08:24:13;;;;;;;3.85;1.52;;;;;;;;;;5032484;28;20060;-63
2024/04/07 08:26:40;;;;;;;2.70;1.15;;;;;;;;;;5032542;28;20054;-63
2024/04/07 08:29:07;;;;;;;3.15;1.30;;;;;;;;;;5027558;28;20376;-63
2024/04/07 08:31:33;;;;;;;3.70;1.25;;;;;;;;;;5025318;28;20042;-62
2024/04/07 08:34:01;;;;;;;3.25;1.33;;;;;;;;;;5046763;28;20155;-62
2024/04/07 08:36:27;;;;;;;2.83;1.42;;;;;;;;;;5012990;28;20061;-61
2024/04/07 08:38:54;;;;;;;3.63;1.23;;;;;;;;;;5019768;28;20057;-61
2024/04/07 08:41:20;;;;;;;3.17;1.50;;;;;;;;;;5032371;28;20498;-61
2024/04/07 08:43:49;;;;;;;4.32;1.50;;;;;;;;;;5032052;28;20049;-62
2024/04/07 08:46:15;;;;;;;2.63;1.27;;;;;;;;;;5026110;28;20479;-62
2024/04/07 08:48:44;;;;;;;4.57;1.50;;;;;;;;;;5018294;28;20125;-61
2024/04/07 08:51:12;;;;;;;3.80;1.55;;;;;;;;;;5031943;28;20054;-63
2024/04/07 08:53:40;;;;;;;6.10;1.35;;;;;;;;;;5035767;28;20564;-62
2024/04/07 08:56:06;;;;;;;3.70;1.30;;;;;;;;;;5031906;28;20064;-61
2024/04/07 08:58:33;;;;;;;4.00;1.13;;;;;;;;;;5030552;28;20049;-61
2024/04/07 09:01:00;;;;;;;5.07;1.15;;;;;;;;;;5031183;28;20064;-61
2024/04/07 09:03:28;;;;;;;5.43;1.40;;;;;;;;;;5024364;28;20399;-61
2024/04/07 09:05:54;;;;;;;4.63;1.33;;;;;;;;;;5012217;28;20488;-61
2024/04/07 09:08:22;;;;;;;5.85;1.40;;;;;;;;;;5028749;28;20084;-61
2024/04/07 09:10:48;;;;;;;6.57;1.15;;;;;;;;;;5031535;28;20053;-61
2024/04/07 09:13:16;;;;;;;5.00;1.33;;;;;;;;;;5029342;28;20148;-59
2024/04/07 09:15:42;;;;;;;5.28;1.30;;;;;;;;;;5030550;28;20065;-63
2024/04/07 09:18:09;;;;;;;3.83;1.35;;;;;;;;;;5031410;28;20398;-61
2024/04/07 09:20:35;;;;;;;3.75;1.05;;;;;;;;;;5018278;28;20057;-63
2024/04/07 09:23:03;;;;;;;3.75;1.23;;;;;;;;;;5034176;28;20052;-61
2024/04/07 09:25:30;;;;;;;2.50;1.20;;;;;;;;;;5035470;28;20057;-61
2024/04/07 09:27:57;;;;;;;2.70;1.10;;;;;;;;;;5034904;28;20060;-61
2024/04/07 09:30:23;;;;;;;3.78;1.10;;;;;;;;;;5034610;28;20057;-61
2024/04/07 09:32:50;;;;;;;2.40;0.93;;;;;;;;;;5035829;28;20088;-62
2024/04/07 09:35:16;;;;;;;4.07;1.13;;;;;;;;;;5034646;28;20053;-61
2024/04/07 09:37:43;;;;;;;3.30;1.30;;;;;;;;;;5024582;28;20552;-61
2024/04/07 09:40:09;;;;;;;3.50;1.20;;;;;;;;;;5040754;28;20045;-61
2024/04/07 09:42:38;;;;;;;3.22;1.08;;;;;;;;;;5035194;28;20049;-61
2024/04/07 09:45:05;;;;;;;3.40;1.15;;;;;;;;;;5033922;28;20049;-61
2024/04/07 09:47:34;;;;;;;4.07;1.10;;;;;;;;;;5029831;28;20483;-61
2024/04/07 09:50:04;;;;;;;3.55;1.20;;;;;;;;;;5035130;28;20053;-62
2024/04/07 09:52:32;;;;;;;2.78;1.20;;;;;;;;;;5033301;28;20060;-61
2024/04/07 09:55:03;;;;;;;2.80;0.90;;;;;;;;;;5033114;28;20049;-61
2024/04/07 09:57:31;;;;;;;4.00;1.38;;;;;;;;;;5034549;28;20049;-63
2024/04/07 09:59:59;;;;;;;4.43;1.33;;;;;;;;;;5034365;28;20057;-61
2024/04/07 10:02:26;;;;;;;4.95;1.15;;;;;;;;;;5035035;28;20056;-62
2024/04/07 10:04:52;;;;;;;3.28;0.90;;;;;;;;;;5026721;28;20049;-61
2024/04/07 10:07:20;;;;;;;6.50;1.15;;;;;;;;;;5034481;28;20407;-62
2024/04/07 10:09:47;;;;;;;2.78;0.90;;;;;;;;;;5033830;28;20054;-62
2024/04/07 10:12:13;;;;;;;6.13;1.50;;;;;;;;;;5033426;28;20050;-62
2024/04/07 10:14:40;;;;;;;5.80;1.20;;;;;;;;;;5033742;28;20049;-61
2024/04/07 10:17:10;;;;;;;11.02;1.50;;;;;;;;;;5034246;28;20072;-62
2024/04/07 10:19:41;;;;;;;3.30;0.80;;;;;;;;;;5034473;28;20057;-61
2024/04/07 10:22:08;;;;;;;3.78;1.30;;;;;;;;;;5029457;28;20041;-61
2024/04/07 10:24:35;;;;;;;4.32;1.38;;;;;;;;;;5035682;28;20061;-62
2024/04/07 10:27:01;;;;;;;5.88;1.00;;;;;;;;;;5041637;28;20049;-62
2024/04/07 10:29:28;;;;;;;6.38;1.35;;;;;;;;;;5024557;28;20049;-61
2024/04/07 10:31:55;;;;;;;2.22;1.00;;;;;;;;;;5034391;28;20475;-61
2024/04/07 10:34:22;;;;;;;2.85;1.00;;;;;;;;;;5033132;28;20065;-61
2024/04/07 10:36:53;;;;;;;3.75;1.25;;;;;;;;;;5026850;28;20060;-62
2024/04/07 10:39:20;;;;;;;3.20;1.00;;;;;;;;;;5025498;28;20407;-61
2024/04/07 10:41:47;;;;;;;2.20;0.85;;;;;;;;;;5033680;28;20057;-62
2024/04/07 10:44:13;;;;;;;4.30;1.17;;;;;;;;;;5034188;28;20057;-62
2024/04/07 10:46:39;;;;;;;2.78;1.10;;;;;;;;;;5029443;28;20454;-62
2024/04/07 10:49:05;;;;;;;2.88;0.80;;;;;;;;;;5026537;28;20459;-62
2024/04/07 10:51:34;;;;;;;3.50;1.10;;;;;;;;;;5034160;28;20052;-62
2024/04/07 10:54:00;;;;;;;2.60;1.00;;;;;;;;;;5033522;28;20056;-62
2024/04/07 10:56:28;;;;;;;7.25;1.10;;;;;;;;;;5031770;28;20050;-63
2024/04/07 10:58:54;;;;;;;9.85;1.40;;;;;;;;;;5033187;28;20065;-62
2024/04/07 11:01:21;;;;;;;2.53;1.05;;;;;;;;;;5031345;28;20057;-61
2024/04/07 11:03:47;;;;;;;4.50;1.17;;;;;;;;;;5029578;28;20419;-60
2024/04/07 11:06:14;;;;;;;2.58;1.15;;;;;;;;;;5033593;28;20054;-62
2024/04/07 11:08:41;;;;;;;3.55;1.27;;;;;;;;;;5032987;28;20060;-62
2024/04/07 11:11:09;;;;;;;2.53;0.90;;;;;;;;;;5033163;28;20072;-61
2024/04/07 11:13:35;;;;;;;5.18;1.10;;;;;;;;;;5033413;28;20053;-62
2024/04/07 11:16:02;;;;;;;1.92;0.90;;;;;;;;;;5032629;28;20133;-61
2024/04/07 11:18:29;;;;;;;6.07;1.10;;;;;;;;;;5033234;28;20478;-61
2024/04/07 11:20:59;;;;;;;2.55;0.95;;;;;;;;;;5019079;28;20049;-60
2024/04/07 11:23:25;;;;;;;2.42;0.98;;;;;;;;;;5032882;28;20057;-62
2024/04/07 11:25:55;;;;;;;3.55;1.10;;;;;;;;;;5033554;28;20053;-62
2024/04/07 11:28:22;;;;;;;4.70;0.98;;;;;;;;;;5033034;28;20053;-62
2024/04/07 11:30:49;;;;;;;4.80;0.80;;;;;;;;;;5027410;28;20042;-62
2024/04/07 11:33:15;;;;;;;2.75;0.73;;;;;;;;;;5037996;28;20423;-62
2024/04/07 11:35:43;;;;;;;2.28;0.80;;;;;;;;;;5043715;28;20056;-64
2024/04/07 11:38:09;;;;;;;7.75;0.80;;;;;;;;;;5031846;28;20483;-62
2024/04/07 11:40:36;;;;;;;3.60;1.10;;;;;;;;;;5033204;28;20076;-61
2024/04/07 11:43:03;;;;;;;2.47;0.77;;;;;;;;;;5032906;28;20072;-62
2024/04/07 11:45:31;;;;;;;2.40;0.90;;;;;;;;;;5032730;28;20077;-62
2024/04/07 11:47:59;;;;;;;2.25;0.93;;;;;;;;;;5032831;28;20056;-61
2024/04/07 11:50:26;;;;;;;3.00;0.90;;;;;;;;;;5032626;28;20479;-62
2024/04/07 11:52:52;;;;;;;3.45;0.90;;;;;;;;;;5029762;28;20054;-62
2024/04/07 11:55:19;;;;;;;5.63;1.20;;;;;;;;;;5030431;28;20076;-62
2024/04/07 11:57:45;;;;;;;6.22;1.27;;;;;;;;;;5032336;28;20053;-62
2024/04/07 12:00:13;;;;;;;3.67;0.80;;;;;;;;;;5028758;28;20065;-62
2024/04/07 12:02:39;;;;;;;3.53;0.75;;;;;;;;;;5031908;28;20064;-62
2024/04/07 12:05:07;;;;;;;2.38;1.00;;;;;;;;;;5031911;28;20073;-62
2024/04/07 12:07:33;;;;;;;2.33;0.90;;;;;;;;;;5030261;28;20053;-61
2024/04/07 12:10:00;;;;;;;3.58;1.10;;;;;;;;;;5031911;28;20049;-62
2024/04/07 12:12:26;;;;;;;2.72;1.10;;;;;;;;;;5031926;28;20053;-62
2024/04/07 12:14:53;;;;;;;3.38;1.08;;;;;;;;;;5032004;28;20053;-61
2024/04/07 12:17:20;;;;;;;2.58;0.82;;;;;;;;;;5028652;28;20053;-61
2024/04/07 12:19:47;;;;;;;8.52;0.98;;;;;;;;;;5032199;28;20514;-62
2024/04/07 12:22:14;;;;;;;2.47;1.00;;;;;;;;;;5032265;28;20046;-62
2024/04/07 12:24:41;;;;;;;3.10;0.93;;;;;;;;;;5023421;28;20513;-62
2024/04/07 12:27:06;;;;;;;2.28;0.85;;;;;;;;;;5027347;28;20054;-62
2024/04/07 12:29:33;;;;;;;3.33;1.20;;;;;;;;;;5026990;28;20049;-62
2024/04/07 12:32:00;;;;;;;2.55;1.02;;;;;;;;;;5028776;28;20411;-61
2024/04/07 12:34:28;;;;;;;3.80;0.80;;;;;;;;;;5020637;28;20050;-62
2024/04/07 12:36:54;;;;;;;2.13;0.90;;;;;;;;;;5031425;28;20049;-62
2024/04/07 12:39:21;;;;;;;2.00;1.02;;;;;;;;;;5028887;28;20332;-62
2024/04/07 12:41:49;;;;;;;1.80;0.80;;;;;;;;;;5028393;28;20053;-61
2024/04/07 12:44:16;;;;;;;3.53;1.10;;;;;;;;;;5025997;28;20042;-62
2024/04/07 12:46:42;;;;;;;2.42;1.13;;;;;;;;;;5025537;28;20063;-62
2024/04/07 12:49:10;;;;;;;1.63;0.80;;;;;;;;;;5027414;28;20145;-62
2024/04/07 12:51:37;;;;;;;3.15;1.00;;;;;;;;;;5026526;28;20050;-62
2024/04/07 12:54:05;;;;;;;2.28;0.90;;;;;;;;;;5022561;28;20050;-62
2024/04/07 12:56:30;;;;;;;1.58;0.73;;;;;;;;;;5035121;28;20063;-60
2024/04/07 12:58:58;;;;;;;3.03;0.82;;;;;;;;;;5034212;28;20053;-62
2024/04/07 13:01:24;;;;;;;3.15;0.95;;;;;;;;;;5036966;28;20415;-62
2024/04/07 13:03:51;;;;;;;4.07;1.15;;;;;;;;;;5039383;28;20048;-63
2024/04/07 13:06:16;;;;;;;3.50;1.23;;;;;;;;;;5026260;28;20057;-62
2024/04/07 13:08:44;;;;;;;2.55;0.80;;;;;;;;;;5034073;28;20123;-62
2024/04/07 13:11:10;;;;;;;3.22;1.10;;;;;;;;;;5036062;28;20057;-63
2024/04/07 13:13:37;;;;;;;1.73;0.70;;;;;;;;;;5034942;28;20550;-62
2024/04/07 13:16:03;;;;;;;1.95;1.00;;;;;;;;;;5036028;28;20061;-62
2024/04/07 13:18:31;;;;;;;1.67;0.77;;;;;;;;;;5026721;28;20069;-63
2024/04/07 13:20:57;;;;;;;2.53;0.80;;;;;;;;;;5022511;28;20045;-63
2024/04/07 13:23:24;;;;;;;2.97;1.05;;;;;;;;;;5034760;28;20045;-62
2024/04/07 13:25:52;;;;;;;2.83;1.30;;;;;;;;;;5034877;28;20053;-64
2024/04/07 13:28:18;;;;;;;2.85;1.10;;;;;;;;;;5034723;28;20049;-65
2024/04/07 13:30:45;;;;;;;2.10;1.05;;;;;;;;;;5035008;28;20065;-63
2024/04/07 13:33:12;;;;;;;3.42;1.30;;;;;;;;;;5035314;28;20054;-63
2024/04/07 13:35:37;;;;;;;2.13;0.90;;;;;;;;;;5034586;28;20418;-63
2024/04/07 13:38:04;;;;;;;3.28;1.00;;;;;;;;;;5033643;28;20089;-63
2024/04/07 13:40:30;;;;;;;3.08;1.00;;;;;;;;;;5034769;28;20065;-63
2024/04/07 13:42:58;;;;;;;2.22;1.10;;;;;;;;;;5032496;28;20053;-63
2024/04/07 13:45:24;;;;;;;3.23;1.13;;;;;;;;;;5034905;28;20124;-63
2024/04/07 13:47:51;;;;;;;3.05;1.00;;;;;;;;;;5033051;28;20063;-62
2024/04/07 13:50:18;;;;;;;2.45;1.00;;;;;;;;;;5046699;28;20072;-63
2024/04/07 13:52:45;;;;;;;2.90;1.10;;;;;;;;;;5028241;28;20053;-62
2024/04/07 13:55:12;;;;;;;4.35;1.10;;;;;;;;;;5034851;28;20407;-63
2024/04/07 13:57:38;;;;;;;3.03;1.05;;;;;;;;;;5034861;28;20049;-63
2024/04/07 14:00:09;;;;;;;3.38;1.30;;;;;;;;;;5034127;28;20059;-63
2024/04/07 14:02:35;;;;;;;2.67;1.00;;;;;;;;;;5030720;28;20076;-62
2024/04/07 14:05:03;;;;;;;2.30;1.00;;;;;;;;;;5032977;28;20045;-63
2024/04/07 14:07:28;;;;;;;1.88;0.90;;;;;;;;;;5032330;28;20053;-63
2024/04/07 14:09:55;;;;;;;3.05;1.00;;;;;;;;;;5021157;28;20411;-62
2024/04/07 14:12:22;;;;;;;3.75;1.10;;;;;;;;;;5012367;28;20053;-64
2024/04/07 14:14:50;;;;;;;2.78;1.23;;;;;;;;;;5012676;28;20487;-60
2024/04/07 14:17:17;;;;;;;2.92;1.10;;;;;;;;;;5012928;28;20404;-63
2024/04/07 14:19:44;;;;;;;2.70;1.10;;;;;;;;;;5012425;28;20502;-63
2024/04/07 14:22:09;;;;;;;4.22;1.13;;;;;;;;;;5012235;28;20054;-63
2024/04/07 14:24:36;;;;;;;2.25;1.10;;;;;;;;;;5013435;28;20441;-63
2024/04/07 14:27:04;;;;;;;3.70;1.30;;;;;;;;;;5015207;28;20054;-64
2024/04/07 14:29:31;;;;;;;2.85;1.00;;;;;;;;;;5014474;28;20050;-63
2024/04/07 14:31:57;;;;;;;3.58;1.10;;;;;;;;;;5014132;28;20061;-63
2024/04/07 14:34:25;;;;;;;2.90;1.00;;;;;;;;;;5013695;28;20057;-63
2024/04/07 14:36:51;;;;;;;2.70;1.00;;;;;;;;;;5014554;28;20058;-64
2024/04/07 14:39:18;;;;;;;3.50;1.40;;;;;;;;;;5014304;28;20060;-63
2024/04/07 14:41:44;;;;;;;3.05;1.23;;;;;;;;;;5013861;28;20411;-62
2024/04/07 14:44:11;;;;;;;2.42;1.00;;;;;;;;;;5015030;28;20045;-63